sensor_id;sensor_type;location;lat;lon;timestamp;P1;durP1;ratioP1;P2;durP2;ratioP2
28760;SDS011;15917;50.014;8.352;2023-10-19T00:01:06;20.63;;;9.32;;
28760;SDS011;15917;50.014;8.352;2023-10-19T00:03:36;23.17;;;11.25;;
28760;SDS011;15917;50.014;8.352;2023-10-19T00:06:02;22.77;;;12.40;;
28760;SDS011;15917;50.014;8.352;2023-10-19T00:08:30;21.02;;;10.65;;
28760;SDS011;15917;50.014;8.352;2023-10-19T00:11:06;18.52;;;10.68;;
28760;SDS011;15917;50.014;8.352;2023-10-19T00:13:46;17.75;;;10.13;;
28760;SDS011;15917;50.014;8.352;2023-10-19T00:16:15;17.48;;;10.63;;
28760;SDS011;15917;50.014;8.352;2023-10-19T00:18:47;18.48;;;10.95;;
28760;SDS011;15917;50.014;8.352;2023-10-19T00:21:14;16.05;;;10.68;;
28760;SDS011;15917;50.014;8.352;2023-10-19T00:23:46;17.42;;;10.82;;
28760;SDS011;15917;50.014;8.352;2023-10-19T00:26:14;18.13;;;11.35;;
28760;SDS011;15917;50.014;8.352;2023-10-19T00:28:52;19.10;;;10.95;;
28760;SDS011;15917;50.014;8.352;2023-10-19T00:31:20;20.63;;;11.32;;
28760;SDS011;15917;50.014;8.352;2023-10-19T00:33:46;19.73;;;11.45;;
28760;SDS011;15917;50.014;8.352;2023-10-19T00:36:12;20.08;;;11.77;;
28760;SDS011;15917;50.014;8.352;2023-10-19T00:38:39;22.95;;;11.85;;
28760;SDS011;15917;50.014;8.352;2023-10-19T00:41:16;20.23;;;11.35;;
28760;SDS011;15917;50.014;8.352;2023-10-19T00:43:54;22.23;;;12.60;;
28760;SDS011;15917;50.014;8.352;2023-10-19T00:46:37;22.73;;;13.05;;
28760;SDS011;15917;50.014;8.352;2023-10-19T00:49:08;22.25;;;13.52;;
28760;SDS011;15917;50.014;8.352;2023-10-19T00:51:45;21.50;;;12.18;;
28760;SDS011;15917;50.014;8.352;2023-10-19T00:54:27;22.15;;;12.38;;
28760;SDS011;15917;50.014;8.352;2023-10-19T00:57:01;19.00;;;12.30;;
28760;SDS011;15917;50.014;8.352;2023-10-19T00:59:40;23.85;;;12.13;;
28760;SDS011;15917;50.014;8.352;2023-10-19T01:02:14;25.38;;;13.55;;
28760;SDS011;15917;50.014;8.352;2023-10-19T01:04:54;20.25;;;12.63;;
28760;SDS011;15917;50.014;8.352;2023-10-19T01:07:28;23.65;;;13.57;;
28760;SDS011;15917;50.014;8.352;2023-10-19T01:09:59;27.23;;;14.98;;
28760;SDS011;15917;50.014;8.352;2023-10-19T01:12:30;22.55;;;13.50;;
28760;SDS011;15917;50.014;8.352;2023-10-19T01:17:38;31.15;;;14.43;;
28760;SDS011;15917;50.014;8.352;2023-10-19T01:20:07;24.73;;;14.05;;
28760;SDS011;15917;50.014;8.352;2023-10-19T01:22:57;27.63;;;14.55;;
28760;SDS011;15917;50.014;8.352;2023-10-19T01:25:49;25.40;;;14.80;;
28760;SDS011;15917;50.014;8.352;2023-10-19T01:28:34;26.27;;;14.55;;
28760;SDS011;15917;50.014;8.352;2023-10-19T01:31:04;22.58;;;14.45;;
28760;SDS011;15917;50.014;8.352;2023-10-19T01:33:31;28.10;;;15.38;;
28760;SDS011;15917;50.014;8.352;2023-10-19T01:35:59;25.38;;;15.38;;
28760;SDS011;15917;50.014;8.352;2023-10-19T01:38:39;24.45;;;14.82;;
28760;SDS011;15917;50.014;8.352;2023-10-19T01:41:06;23.98;;;14.23;;
28760;SDS011;15917;50.014;8.352;2023-10-19T01:43:43;25.35;;;14.98;;
28760;SDS011;15917;50.014;8.352;2023-10-19T01:46:11;26.23;;;15.05;;
28760;SDS011;15917;50.014;8.352;2023-10-19T01:48:38;26.17;;;15.38;;
28760;SDS011;15917;50.014;8.352;2023-10-19T01:51:08;26.15;;;14.23;;
28760;SDS011;15917;50.014;8.352;2023-10-19T01:53:39;30.15;;;15.43;;
28760;SDS011;15917;50.014;8.352;2023-10-19T01:56:10;26.45;;;15.98;;
28760;SDS011;15917;50.014;8.352;2023-10-19T01:58:38;33.83;;;18.25;;
28760;SDS011;15917;50.014;8.352;2023-10-19T02:01:05;36.72;;;18.67;;
28760;SDS011;15917;50.014;8.352;2023-10-19T02:03:52;31.08;;;17.70;;
28760;SDS011;15917;50.014;8.352;2023-10-19T02:08:46;33.20;;;18.05;;
28760;SDS011;15917;50.014;8.352;2023-10-19T02:11:23;31.15;;;16.75;;
28760;SDS011;15917;50.014;8.352;2023-10-19T02:13:54;34.45;;;19.52;;
28760;SDS011;15917;50.014;8.352;2023-10-19T02:16:25;33.42;;;18.17;;
28760;SDS011;15917;50.014;8.352;2023-10-19T02:18:52;30.58;;;18.17;;
28760;SDS011;15917;50.014;8.352;2023-10-19T02:21:18;27.77;;;18.10;;
28760;SDS011;15917;50.014;8.352;2023-10-19T02:23:47;35.75;;;18.58;;
28760;SDS011;15917;50.014;8.352;2023-10-19T02:26:16;34.70;;;19.08;;
28760;SDS011;15917;50.014;8.352;2023-10-19T02:28:45;39.17;;;20.15;;
28760;SDS011;15917;50.014;8.352;2023-10-19T02:31:16;34.78;;;19.25;;
28760;SDS011;15917;50.014;8.352;2023-10-19T02:33:53;34.90;;;20.73;;
28760;SDS011;15917;50.014;8.352;2023-10-19T02:36:29;36.47;;;19.15;;
28760;SDS011;15917;50.014;8.352;2023-10-19T02:43:52;35.10;;;18.48;;
28760;SDS011;15917;50.014;8.352;2023-10-19T02:46:33;30.08;;;17.92;;
28760;SDS011;15917;50.014;8.352;2023-10-19T02:49:02;32.58;;;17.45;;
28760;SDS011;15917;50.014;8.352;2023-10-19T02:51:30;35.40;;;18.60;;
28760;SDS011;15917;50.014;8.352;2023-10-19T02:53:56;35.45;;;19.05;;
28760;SDS011;15917;50.014;8.352;2023-10-19T02:56:26;33.10;;;18.15;;
28760;SDS011;15917;50.014;8.352;2023-10-19T02:58:54;33.63;;;18.45;;
28760;SDS011;15917;50.014;8.352;2023-10-19T03:01:26;35.70;;;18.45;;
28760;SDS011;15917;50.014;8.352;2023-10-19T03:04:00;34.60;;;20.85;;
28760;SDS011;15917;50.014;8.352;2023-10-19T03:06:27;40.95;;;21.15;;
28760;SDS011;15917;50.014;8.352;2023-10-19T03:09:04;39.55;;;21.13;;
28760;SDS011;15917;50.014;8.352;2023-10-19T03:11:38;39.92;;;20.95;;
28760;SDS011;15917;50.014;8.352;2023-10-19T03:14:06;36.70;;;22.10;;
28760;SDS011;15917;50.014;8.352;2023-10-19T03:16:33;42.47;;;23.00;;
28760;SDS011;15917;50.014;8.352;2023-10-19T03:19:00;44.13;;;22.02;;
28760;SDS011;15917;50.014;8.352;2023-10-19T03:21:26;36.20;;;21.05;;
28760;SDS011;15917;50.014;8.352;2023-10-19T03:23:56;41.08;;;22.92;;
28760;SDS011;15917;50.014;8.352;2023-10-19T03:26:27;44.03;;;22.77;;
28760;SDS011;15917;50.014;8.352;2023-10-19T03:28:56;45.15;;;23.88;;
28760;SDS011;15917;50.014;8.352;2023-10-19T03:31:32;43.33;;;24.27;;
28760;SDS011;15917;50.014;8.352;2023-10-19T03:34:01;52.05;;;24.90;;
28760;SDS011;15917;50.014;8.352;2023-10-19T03:36:30;42.55;;;23.33;;
28760;SDS011;15917;50.014;8.352;2023-10-19T03:38:57;42.65;;;22.58;;
28760;SDS011;15917;50.014;8.352;2023-10-19T03:41:30;45.92;;;24.02;;
28760;SDS011;15917;50.014;8.352;2023-10-19T03:44:01;44.30;;;24.40;;
28760;SDS011;15917;50.014;8.352;2023-10-19T03:46:26;40.75;;;24.77;;
28760;SDS011;15917;50.014;8.352;2023-10-19T03:48:56;46.95;;;24.30;;
28760;SDS011;15917;50.014;8.352;2023-10-19T03:51:36;42.70;;;24.58;;
28760;SDS011;15917;50.014;8.352;2023-10-19T03:54:05;47.42;;;23.98;;
28760;SDS011;15917;50.014;8.352;2023-10-19T03:56:49;36.38;;;22.45;;
28760;SDS011;15917;50.014;8.352;2023-10-19T03:59:15;48.67;;;24.13;;
28760;SDS011;15917;50.014;8.352;2023-10-19T04:01:42;42.80;;;23.35;;
28760;SDS011;15917;50.014;8.352;2023-10-19T04:04:09;43.13;;;24.98;;
28760;SDS011;15917;50.014;8.352;2023-10-19T04:06:35;40.83;;;23.67;;
28760;SDS011;15917;50.014;8.352;2023-10-19T04:09:02;41.47;;;25.00;;
28760;SDS011;15917;50.014;8.352;2023-10-19T04:11:30;44.33;;;23.23;;
28760;SDS011;15917;50.014;8.352;2023-10-19T04:14:13;48.45;;;25.35;;
28760;SDS011;15917;50.014;8.352;2023-10-19T04:16:40;46.97;;;25.05;;
28760;SDS011;15917;50.014;8.352;2023-10-19T04:19:09;49.60;;;24.27;;
28760;SDS011;15917;50.014;8.352;2023-10-19T04:21:35;47.95;;;24.00;;
28760;SDS011;15917;50.014;8.352;2023-10-19T04:24:04;46.10;;;25.60;;
28760;SDS011;15917;50.014;8.352;2023-10-19T04:26:32;40.17;;;23.70;;
28760;SDS011;15917;50.014;8.352;2023-10-19T04:29:02;47.60;;;25.20;;
28760;SDS011;15917;50.014;8.352;2023-10-19T04:31:35;44.55;;;25.05;;
28760;SDS011;15917;50.014;8.352;2023-10-19T04:34:20;51.13;;;24.08;;
28760;SDS011;15917;50.014;8.352;2023-10-19T04:36:49;46.63;;;23.90;;
28760;SDS011;15917;50.014;8.352;2023-10-19T04:39:15;48.28;;;24.63;;
28760;SDS011;15917;50.014;8.352;2023-10-19T04:41:44;43.05;;;24.63;;
28760;SDS011;15917;50.014;8.352;2023-10-19T04:44:10;44.78;;;24.88;;
28760;SDS011;15917;50.014;8.352;2023-10-19T04:46:36;42.75;;;24.48;;
28760;SDS011;15917;50.014;8.352;2023-10-19T04:49:02;48.03;;;25.38;;
28760;SDS011;15917;50.014;8.352;2023-10-19T04:51:31;45.75;;;25.83;;
28760;SDS011;15917;50.014;8.352;2023-10-19T04:53:56;52.75;;;26.27;;
28760;SDS011;15917;50.014;8.352;2023-10-19T04:56:22;60.78;;;27.35;;
28760;SDS011;15917;50.014;8.352;2023-10-19T04:58:48;64.85;;;27.40;;
28760;SDS011;15917;50.014;8.352;2023-10-19T05:01:14;53.92;;;26.45;;
28760;SDS011;15917;50.014;8.352;2023-10-19T05:03:40;53.50;;;28.77;;
28760;SDS011;15917;50.014;8.352;2023-10-19T05:06:06;55.65;;;29.05;;
28760;SDS011;15917;50.014;8.352;2023-10-19T05:08:31;56.65;;;28.95;;
28760;SDS011;15917;50.014;8.352;2023-10-19T05:10:58;60.90;;;29.17;;
28760;SDS011;15917;50.014;8.352;2023-10-19T05:13:27;58.22;;;30.38;;
28760;SDS011;15917;50.014;8.352;2023-10-19T05:15:53;59.42;;;30.77;;
28760;SDS011;15917;50.014;8.352;2023-10-19T05:18:20;56.60;;;30.65;;
28760;SDS011;15917;50.014;8.352;2023-10-19T05:20:47;61.05;;;31.48;;
28760;SDS011;15917;50.014;8.352;2023-10-19T05:23:14;60.22;;;30.02;;
28760;SDS011;15917;50.014;8.352;2023-10-19T05:25:40;57.42;;;31.50;;
28760;SDS011;15917;50.014;8.352;2023-10-19T05:28:06;63.05;;;31.58;;
28760;SDS011;15917;50.014;8.352;2023-10-19T05:30:32;63.65;;;31.30;;
28760;SDS011;15917;50.014;8.352;2023-10-19T05:32:59;65.30;;;32.05;;
28760;SDS011;15917;50.014;8.352;2023-10-19T05:35:26;57.45;;;32.55;;
28760;SDS011;15917;50.014;8.352;2023-10-19T05:37:53;61.70;;;32.42;;
28760;SDS011;15917;50.014;8.352;2023-10-19T05:40:22;60.22;;;31.13;;
28760;SDS011;15917;50.014;8.352;2023-10-19T05:42:49;81.40;;;33.72;;
28760;SDS011;15917;50.014;8.352;2023-10-19T05:45:14;73.85;;;33.75;;
28760;SDS011;15917;50.014;8.352;2023-10-19T05:47:43;68.57;;;33.78;;
28760;SDS011;15917;50.014;8.352;2023-10-19T05:50:09;72.60;;;32.90;;
28760;SDS011;15917;50.014;8.352;2023-10-19T05:52:39;65.65;;;31.67;;
28760;SDS011;15917;50.014;8.352;2023-10-19T05:55:07;76.32;;;33.50;;
28760;SDS011;15917;50.014;8.352;2023-10-19T05:57:34;70.93;;;33.58;;
28760;SDS011;15917;50.014;8.352;2023-10-19T06:00:01;68.95;;;33.55;;
28760;SDS011;15917;50.014;8.352;2023-10-19T06:02:27;66.30;;;33.05;;
28760;SDS011;15917;50.014;8.352;2023-10-19T06:04:52;70.95;;;34.20;;
28760;SDS011;15917;50.014;8.352;2023-10-19T06:07:18;70.63;;;33.90;;
28760;SDS011;15917;50.014;8.352;2023-10-19T06:09:43;76.47;;;33.53;;
28760;SDS011;15917;50.014;8.352;2023-10-19T06:12:09;74.88;;;33.40;;
28760;SDS011;15917;50.014;8.352;2023-10-19T06:14:34;76.93;;;33.45;;
28760;SDS011;15917;50.014;8.352;2023-10-19T06:17:00;71.30;;;34.63;;
28760;SDS011;15917;50.014;8.352;2023-10-19T06:19:26;87.20;;;36.53;;
28760;SDS011;15917;50.014;8.352;2023-10-19T06:21:52;78.47;;;36.17;;
28760;SDS011;15917;50.014;8.352;2023-10-19T06:24:17;83.20;;;36.35;;
28760;SDS011;15917;50.014;8.352;2023-10-19T06:26:44;99.85;;;37.15;;
28760;SDS011;15917;50.014;8.352;2023-10-19T06:29:09;85.13;;;34.78;;
28760;SDS011;15917;50.014;8.352;2023-10-19T06:31:35;82.45;;;36.47;;
28760;SDS011;15917;50.014;8.352;2023-10-19T06:34:01;87.85;;;36.72;;
28760;SDS011;15917;50.014;8.352;2023-10-19T06:36:28;81.43;;;34.95;;
28760;SDS011;15917;50.014;8.352;2023-10-19T06:38:56;80.43;;;34.35;;
28760;SDS011;15917;50.014;8.352;2023-10-19T06:41:22;79.95;;;36.30;;
28760;SDS011;15917;50.014;8.352;2023-10-19T06:43:49;82.05;;;36.85;;
28760;SDS011;15917;50.014;8.352;2023-10-19T06:46:15;82.47;;;36.22;;
28760;SDS011;15917;50.014;8.352;2023-10-19T06:48:40;83.45;;;36.45;;
28760;SDS011;15917;50.014;8.352;2023-10-19T06:51:07;93.53;;;37.35;;
28760;SDS011;15917;50.014;8.352;2023-10-19T06:53:33;86.78;;;37.92;;
28760;SDS011;15917;50.014;8.352;2023-10-19T06:55:59;86.93;;;36.35;;
28760;SDS011;15917;50.014;8.352;2023-10-19T06:58:25;93.55;;;37.90;;
28760;SDS011;15917;50.014;8.352;2023-10-19T07:00:52;122.63;;;40.88;;
28760;SDS011;15917;50.014;8.352;2023-10-19T07:03:21;96.38;;;40.28;;
28760;SDS011;15917;50.014;8.352;2023-10-19T07:05:48;89.63;;;36.53;;
28760;SDS011;15917;50.014;8.352;2023-10-19T07:08:14;102.70;;;39.15;;
28760;SDS011;15917;50.014;8.352;2023-10-19T07:10:40;81.78;;;37.90;;
28760;SDS011;15917;50.014;8.352;2023-10-19T07:13:08;84.53;;;38.08;;
28760;SDS011;15917;50.014;8.352;2023-10-19T07:15:34;85.80;;;38.55;;
28760;SDS011;15917;50.014;8.352;2023-10-19T07:17:59;92.57;;;37.33;;
28760;SDS011;15917;50.014;8.352;2023-10-19T07:20:25;99.88;;;40.67;;
28760;SDS011;15917;50.014;8.352;2023-10-19T07:22:58;95.28;;;38.45;;
28760;SDS011;15917;50.014;8.352;2023-10-19T07:25:35;94.47;;;37.88;;
28760;SDS011;15917;50.014;8.352;2023-10-19T07:28:11;94.35;;;39.60;;
28760;SDS011;15917;50.014;8.352;2023-10-19T07:30:41;128.00;;;38.67;;
28760;SDS011;15917;50.014;8.352;2023-10-19T07:33:08;96.57;;;39.20;;
28760;SDS011;15917;50.014;8.352;2023-10-19T07:35:37;106.35;;;39.03;;
28760;SDS011;15917;50.014;8.352;2023-10-19T07:38:04;112.55;;;41.38;;
28760;SDS011;15917;50.014;8.352;2023-10-19T07:40:32;94.18;;;37.85;;
28760;SDS011;15917;50.014;8.352;2023-10-19T07:42:59;90.47;;;37.42;;
28760;SDS011;15917;50.014;8.352;2023-10-19T07:45:24;95.82;;;41.40;;
28760;SDS011;15917;50.014;8.352;2023-10-19T07:47:50;98.38;;;40.35;;
28760;SDS011;15917;50.014;8.352;2023-10-19T07:50:16;104.32;;;41.85;;
28760;SDS011;15917;50.014;8.352;2023-10-19T07:52:52;99.13;;;39.65;;
28760;SDS011;15917;50.014;8.352;2023-10-19T07:55:19;95.03;;;39.75;;
28760;SDS011;15917;50.014;8.352;2023-10-19T07:57:51;100.90;;;42.45;;
28760;SDS011;15917;50.014;8.352;2023-10-19T08:00:18;97.57;;;40.72;;
28760;SDS011;15917;50.014;8.352;2023-10-19T08:02:45;107.00;;;42.33;;
28760;SDS011;15917;50.014;8.352;2023-10-19T08:05:15;106.45;;;42.00;;
28760;SDS011;15917;50.014;8.352;2023-10-19T08:07:43;109.97;;;42.72;;
28760;SDS011;15917;50.014;8.352;2023-10-19T08:10:11;105.90;;;41.83;;
28760;SDS011;15917;50.014;8.352;2023-10-19T08:12:37;101.72;;;41.80;;
28760;SDS011;15917;50.014;8.352;2023-10-19T08:15:06;106.93;;;41.63;;
28760;SDS011;15917;50.014;8.352;2023-10-19T08:17:33;96.30;;;37.58;;
28760;SDS011;15917;50.014;8.352;2023-10-19T08:19:59;115.57;;;37.25;;
28760;SDS011;15917;50.014;8.352;2023-10-19T08:22:28;106.38;;;40.92;;
28760;SDS011;15917;50.014;8.352;2023-10-19T08:24:55;127.00;;;42.40;;
28760;SDS011;15917;50.014;8.352;2023-10-19T08:27:21;104.43;;;40.28;;
28760;SDS011;15917;50.014;8.352;2023-10-19T08:32:15;181.13;;;37.28;;
28760;SDS011;15917;50.014;8.352;2023-10-19T08:34:41;89.07;;;39.03;;
28760;SDS011;15917;50.014;8.352;2023-10-19T08:37:07;103.10;;;41.67;;
28760;SDS011;15917;50.014;8.352;2023-10-19T08:39:32;98.45;;;39.72;;
28760;SDS011;15917;50.014;8.352;2023-10-19T08:42:04;88.75;;;39.38;;
28760;SDS011;15917;50.014;8.352;2023-10-19T08:44:31;115.22;;;38.70;;
28760;SDS011;15917;50.014;8.352;2023-10-19T08:46:57;96.80;;;39.17;;
28760;SDS011;15917;50.014;8.352;2023-10-19T08:49:24;99.78;;;37.22;;
28760;SDS011;15917;50.014;8.352;2023-10-19T08:51:52;88.70;;;38.85;;
28760;SDS011;15917;50.014;8.352;2023-10-19T08:54:19;89.90;;;36.72;;
28760;SDS011;15917;50.014;8.352;2023-10-19T08:56:45;87.57;;;36.83;;
28760;SDS011;15917;50.014;8.352;2023-10-19T08:59:12;80.10;;;34.80;;
28760;SDS011;15917;50.014;8.352;2023-10-19T09:01:40;106.65;;;38.88;;
28760;SDS011;15917;50.014;8.352;2023-10-19T09:04:09;79.57;;;35.63;;
28760;SDS011;15917;50.014;8.352;2023-10-19T09:06:44;75.43;;;33.85;;
28760;SDS011;15917;50.014;8.352;2023-10-19T09:09:13;79.28;;;35.95;;
28760;SDS011;15917;50.014;8.352;2023-10-19T09:11:44;126.57;;;30.33;;
28760;SDS011;15917;50.014;8.352;2023-10-19T09:14:12;54.85;;;29.52;;
28760;SDS011;15917;50.014;8.352;2023-10-19T09:16:38;65.32;;;30.83;;
28760;SDS011;15917;50.014;8.352;2023-10-19T09:19:19;66.10;;;31.65;;
28760;SDS011;15917;50.014;8.352;2023-10-19T09:21:45;69.88;;;32.00;;
28760;SDS011;15917;50.014;8.352;2023-10-19T09:24:11;75.55;;;33.50;;
28760;SDS011;15917;50.014;8.352;2023-10-19T09:26:37;67.45;;;30.00;;
28760;SDS011;15917;50.014;8.352;2023-10-19T09:29:02;64.90;;;31.35;;
28760;SDS011;15917;50.014;8.352;2023-10-19T09:31:28;67.40;;;31.33;;
28760;SDS011;15917;50.014;8.352;2023-10-19T09:33:55;59.25;;;28.27;;
28760;SDS011;15917;50.014;8.352;2023-10-19T09:36:22;69.07;;;29.33;;
28760;SDS011;15917;50.014;8.352;2023-10-19T09:38:52;59.10;;;29.65;;
28760;SDS011;15917;50.014;8.352;2023-10-19T09:41:18;64.55;;;29.10;;
28760;SDS011;15917;50.014;8.352;2023-10-19T09:43:53;63.25;;;30.23;;
28760;SDS011;15917;50.014;8.352;2023-10-19T09:46:30;78.20;;;31.00;;
28760;SDS011;15917;50.014;8.352;2023-10-19T09:48:57;66.30;;;30.52;;
28760;SDS011;15917;50.014;8.352;2023-10-19T09:51:23;61.97;;;30.20;;
28760;SDS011;15917;50.014;8.352;2023-10-19T09:56:36;55.33;;;29.05;;
28760;SDS011;15917;50.014;8.352;2023-10-19T09:59:06;57.30;;;30.48;;
28760;SDS011;15917;50.014;8.352;2023-10-19T10:04:41;51.70;;;27.73;;
28760;SDS011;15917;50.014;8.352;2023-10-19T10:07:08;57.70;;;28.25;;
28760;SDS011;15917;50.014;8.352;2023-10-19T10:09:39;52.30;;;28.60;;
28760;SDS011;15917;50.014;8.352;2023-10-19T10:12:22;52.60;;;28.60;;
28760;SDS011;15917;50.014;8.352;2023-10-19T10:15:02;59.05;;;29.55;;
28760;SDS011;15917;50.014;8.352;2023-10-19T10:17:38;56.15;;;29.13;;
28760;SDS011;15917;50.014;8.352;2023-10-19T10:22:39;54.75;;;29.27;;
28760;SDS011;15917;50.014;8.352;2023-10-19T10:25:09;56.53;;;29.75;;
28760;SDS011;15917;50.014;8.352;2023-10-19T10:27:51;58.65;;;29.42;;
28760;SDS011;15917;50.014;8.352;2023-10-19T10:30:16;57.55;;;27.92;;
28760;SDS011;15917;50.014;8.352;2023-10-19T10:32:43;53.97;;;27.77;;
28760;SDS011;15917;50.014;8.352;2023-10-19T10:38:10;50.95;;;27.70;;
28760;SDS011;15917;50.014;8.352;2023-10-19T10:40:42;50.67;;;26.15;;
28760;SDS011;15917;50.014;8.352;2023-10-19T10:43:09;52.38;;;25.15;;
28760;SDS011;15917;50.014;8.352;2023-10-19T10:45:35;49.50;;;26.88;;
28760;SDS011;15917;50.014;8.352;2023-10-19T10:48:01;45.20;;;24.10;;
28760;SDS011;15917;50.014;8.352;2023-10-19T10:50:28;47.53;;;25.03;;
28760;SDS011;15917;50.014;8.352;2023-10-19T10:52:54;44.45;;;24.63;;
28760;SDS011;15917;50.014;8.352;2023-10-19T10:55:23;44.63;;;24.17;;
28760;SDS011;15917;50.014;8.352;2023-10-19T10:57:50;46.72;;;24.70;;
28760;SDS011;15917;50.014;8.352;2023-10-19T11:00:16;45.30;;;25.05;;
28760;SDS011;15917;50.014;8.352;2023-10-19T11:02:44;43.22;;;23.23;;
28760;SDS011;15917;50.014;8.352;2023-10-19T11:05:11;40.40;;;23.67;;
28760;SDS011;15917;50.014;8.352;2023-10-19T11:07:39;42.17;;;23.63;;
28760;SDS011;15917;50.014;8.352;2023-10-19T11:10:06;43.45;;;23.10;;
28760;SDS011;15917;50.014;8.352;2023-10-19T11:12:32;44.75;;;23.10;;
28760;SDS011;15917;50.014;8.352;2023-10-19T11:14:59;40.05;;;23.20;;
28760;SDS011;15917;50.014;8.352;2023-10-19T11:17:25;49.30;;;23.10;;
28760;SDS011;15917;50.014;8.352;2023-10-19T11:19:57;40.30;;;22.15;;
28760;SDS011;15917;50.014;8.352;2023-10-19T11:22:23;41.30;;;24.92;;
28760;SDS011;15917;50.014;8.352;2023-10-19T11:24:51;39.20;;;23.38;;
28760;SDS011;15917;50.014;8.352;2023-10-19T11:27:27;46.88;;;23.65;;
28760;SDS011;15917;50.014;8.352;2023-10-19T11:29:54;42.33;;;24.17;;
28760;SDS011;15917;50.014;8.352;2023-10-19T11:32:21;48.50;;;24.85;;
28760;SDS011;15917;50.014;8.352;2023-10-19T11:34:54;39.78;;;22.48;;
28760;SDS011;15917;50.014;8.352;2023-10-19T11:37:21;40.80;;;23.60;;
28760;SDS011;15917;50.014;8.352;2023-10-19T11:39:47;41.92;;;23.63;;
28760;SDS011;15917;50.014;8.352;2023-10-19T11:42:15;47.92;;;24.40;;
28760;SDS011;15917;50.014;8.352;2023-10-19T11:44:44;37.22;;;23.05;;
28760;SDS011;15917;50.014;8.352;2023-10-19T11:47:11;40.67;;;23.85;;
28760;SDS011;15917;50.014;8.352;2023-10-19T11:49:38;43.97;;;25.40;;
28760;SDS011;15917;50.014;8.352;2023-10-19T11:52:05;42.17;;;24.15;;
28760;SDS011;15917;50.014;8.352;2023-10-19T11:54:32;44.45;;;26.13;;
28760;SDS011;15917;50.014;8.352;2023-10-19T11:56:58;50.40;;;24.60;;
28760;SDS011;15917;50.014;8.352;2023-10-19T11:59:24;52.08;;;24.45;;
28760;SDS011;15917;50.014;8.352;2023-10-19T12:01:51;40.60;;;24.58;;
28760;SDS011;15917;50.014;8.352;2023-10-19T12:04:17;44.72;;;24.10;;
28760;SDS011;15917;50.014;8.352;2023-10-19T12:06:43;43.88;;;24.23;;
28760;SDS011;15917;50.014;8.352;2023-10-19T12:09:11;41.13;;;22.80;;
28760;SDS011;15917;50.014;8.352;2023-10-19T12:11:42;42.45;;;25.05;;
28760;SDS011;15917;50.014;8.352;2023-10-19T12:14:11;46.83;;;24.00;;
28760;SDS011;15917;50.014;8.352;2023-10-19T12:16:40;41.25;;;23.48;;
28760;SDS011;15917;50.014;8.352;2023-10-19T12:19:05;45.90;;;25.17;;
28760;SDS011;15917;50.014;8.352;2023-10-19T12:21:35;36.33;;;22.58;;
28760;SDS011;15917;50.014;8.352;2023-10-19T12:24:03;45.38;;;22.70;;
28760;SDS011;15917;50.014;8.352;2023-10-19T12:26:30;43.97;;;24.35;;
28760;SDS011;15917;50.014;8.352;2023-10-19T12:28:55;39.13;;;22.08;;
28760;SDS011;15917;50.014;8.352;2023-10-19T12:31:21;40.72;;;22.65;;
28760;SDS011;15917;50.014;8.352;2023-10-19T12:33:48;36.47;;;22.55;;
28760;SDS011;15917;50.014;8.352;2023-10-19T12:36:14;40.22;;;23.65;;
28760;SDS011;15917;50.014;8.352;2023-10-19T12:38:57;40.05;;;21.38;;
28760;SDS011;15917;50.014;8.352;2023-10-19T12:41:23;43.67;;;23.20;;
28760;SDS011;15917;50.014;8.352;2023-10-19T12:43:49;46.70;;;23.02;;
28760;SDS011;15917;50.014;8.352;2023-10-19T12:46:23;36.83;;;22.20;;
28760;SDS011;15917;50.014;8.352;2023-10-19T12:48:57;37.58;;;23.20;;
28760;SDS011;15917;50.014;8.352;2023-10-19T12:51:23;41.78;;;23.52;;
28760;SDS011;15917;50.014;8.352;2023-10-19T12:53:52;41.95;;;24.38;;
28760;SDS011;15917;50.014;8.352;2023-10-19T12:56:19;40.75;;;24.40;;
28760;SDS011;15917;50.014;8.352;2023-10-19T12:58:46;45.80;;;24.48;;
28760;SDS011;15917;50.014;8.352;2023-10-19T13:01:13;48.30;;;24.77;;
28760;SDS011;15917;50.014;8.352;2023-10-19T13:03:44;46.17;;;26.23;;
28760;SDS011;15917;50.014;8.352;2023-10-19T13:06:11;42.08;;;24.67;;
28760;SDS011;15917;50.014;8.352;2023-10-19T13:08:37;43.25;;;24.45;;
28760;SDS011;15917;50.014;8.352;2023-10-19T13:11:05;50.33;;;26.88;;
28760;SDS011;15917;50.014;8.352;2023-10-19T13:13:32;43.67;;;24.63;;
28760;SDS011;15917;50.014;8.352;2023-10-19T13:15:57;42.28;;;26.80;;
28760;SDS011;15917;50.014;8.352;2023-10-19T13:18:24;46.57;;;27.40;;
28760;SDS011;15917;50.014;8.352;2023-10-19T13:20:53;44.63;;;26.02;;
28760;SDS011;15917;50.014;8.352;2023-10-19T13:23:19;41.47;;;23.95;;
28760;SDS011;15917;50.014;8.352;2023-10-19T13:25:48;40.85;;;23.15;;
28760;SDS011;15917;50.014;8.352;2023-10-19T13:28:16;45.80;;;22.52;;
28760;SDS011;15917;50.014;8.352;2023-10-19T13:30:45;39.58;;;21.85;;
28760;SDS011;15917;50.014;8.352;2023-10-19T13:33:12;37.05;;;21.58;;
28760;SDS011;15917;50.014;8.352;2023-10-19T13:35:39;38.00;;;23.80;;
28760;SDS011;15917;50.014;8.352;2023-10-19T13:38:07;36.92;;;24.17;;
28760;SDS011;15917;50.014;8.352;2023-10-19T13:40:34;41.27;;;22.77;;
28760;SDS011;15917;50.014;8.352;2023-10-19T13:43:01;39.22;;;23.92;;
28760;SDS011;15917;50.014;8.352;2023-10-19T13:45:30;24.92;;;16.13;;
28760;SDS011;15917;50.014;8.352;2023-10-19T13:47:57;37.75;;;20.02;;
28760;SDS011;15917;50.014;8.352;2023-10-19T13:50:23;40.47;;;21.23;;
28760;SDS011;15917;50.014;8.352;2023-10-19T13:52:51;41.65;;;20.75;;
28760;SDS011;15917;50.014;8.352;2023-10-19T13:55:18;35.53;;;19.40;;
28760;SDS011;15917;50.014;8.352;2023-10-19T13:57:46;35.43;;;20.73;;
28760;SDS011;15917;50.014;8.352;2023-10-19T14:00:13;30.70;;;20.00;;
28760;SDS011;15917;50.014;8.352;2023-10-19T14:02:45;33.50;;;18.95;;
28760;SDS011;15917;50.014;8.352;2023-10-19T14:05:12;34.57;;;20.17;;
28760;SDS011;15917;50.014;8.352;2023-10-19T14:07:38;38.60;;;20.02;;
28760;SDS011;15917;50.014;8.352;2023-10-19T14:10:05;31.38;;;18.13;;
28760;SDS011;15917;50.014;8.352;2023-10-19T14:12:37;32.78;;;18.65;;
28760;SDS011;15917;50.014;8.352;2023-10-19T14:15:07;28.80;;;18.20;;
28760;SDS011;15917;50.014;8.352;2023-10-19T14:17:36;36.03;;;18.77;;
28760;SDS011;15917;50.014;8.352;2023-10-19T14:20:01;29.27;;;17.70;;
28760;SDS011;15917;50.014;8.352;2023-10-19T14:22:29;28.45;;;16.92;;
28760;SDS011;15917;50.014;8.352;2023-10-19T14:24:59;35.90;;;19.13;;
28760;SDS011;15917;50.014;8.352;2023-10-19T14:27:25;33.67;;;19.10;;
28760;SDS011;15917;50.014;8.352;2023-10-19T14:29:51;38.22;;;19.85;;
28760;SDS011;15917;50.014;8.352;2023-10-19T14:32:17;29.02;;;19.30;;
28760;SDS011;15917;50.014;8.352;2023-10-19T14:34:42;32.08;;;19.45;;
28760;SDS011;15917;50.014;8.352;2023-10-19T14:37:08;38.20;;;18.70;;
28760;SDS011;15917;50.014;8.352;2023-10-19T14:39:34;32.80;;;19.00;;
28760;SDS011;15917;50.014;8.352;2023-10-19T14:41:59;33.55;;;19.42;;
28760;SDS011;15917;50.014;8.352;2023-10-19T14:44:25;33.05;;;20.45;;
28760;SDS011;15917;50.014;8.352;2023-10-19T14:46:52;37.70;;;20.88;;
28760;SDS011;15917;50.014;8.352;2023-10-19T14:49:18;32.53;;;19.92;;
28760;SDS011;15917;50.014;8.352;2023-10-19T14:51:44;36.17;;;20.33;;
28760;SDS011;15917;50.014;8.352;2023-10-19T14:54:09;34.38;;;22.08;;